Time;durP1;ratioP1;P1;durP2;ratioP2;P2;SDS_P1;SDS_P2;PMS_P1;PMS_P2;Temp;Humidity;BMP_temperature;BMP_pressure;BME280_temperature;BME280_humidity;BME280_pressure;Samples;Min_cycle;Max_cycle;Signal;HPM_P1;HPM_P2
2024/01/29 00:01:42;;;;;;;17.10;3.53;;;;;;;2.62;100.00;101962.97;5062249;28;20033;-72
2024/01/29 00:04:07;;;;;;;22.25;3.45;;;;;;;2.59;100.00;101967.53;5075047;28;20350;-71
2024/01/29 00:06:32;;;;;;;16.08;3.17;;;;;;;2.56;100.00;101957.16;5074012;28;20029;-71
2024/01/29 00:08:59;;;;;;;19.73;3.55;;;;;;;2.39;100.00;101928.41;5074021;28;20052;-71
2024/01/29 00:11:24;;;;;;;19.02;3.63;;;;;;;2.54;100.00;101945.78;5074863;28;20479;-71
2024/01/29 00:13:50;;;;;;;19.08;3.80;;;;;;;2.55;100.00;101950.16;5077058;28;20151;-71
2024/01/29 00:16:16;;;;;;;17.35;3.40;;;;;;;2.58;100.00;101954.38;5076386;28;20356;-72
2024/01/29 00:18:42;;;;;;;15.13;3.42;;;;;;;2.58;100.00;101970.31;5076346;28;20043;-72
2024/01/29 00:21:07;;;;;;;18.42;3.22;;;;;;;2.56;100.00;101967.78;5075336;28;20028;-71
2024/01/29 00:23:33;;;;;;;22.20;3.53;;;;;;;2.54;100.00;101960.88;5076632;28;20677;-72
2024/01/29 00:25:58;;;;;;;26.17;4.28;;;;;;;2.46;100.00;101950.84;5077062;28;20036;-71
2024/01/29 00:28:24;;;;;;;17.45;3.22;;;;;;;2.55;100.00;101965.22;5076730;28;20128;-72
2024/01/29 00:30:49;;;;;;;22.88;3.60;;;;;;;2.55;100.00;101951.94;5077137;28;20036;-70
2024/01/29 00:33:15;;;;;;;20.17;4.00;;;;;;;2.48;100.00;101934.78;5078862;28;20044;-71
2024/01/29 00:35:40;;;;;;;18.58;3.53;;;;;;;2.57;100.00;101953.53;5060747;28;20513;-71
2024/01/29 00:38:06;;;;;;;17.23;3.08;;;;;;;2.55;100.00;101958.13;5078149;28;20052;-72
2024/01/29 00:40:33;;;;;;;14.57;3.38;;;;;;;2.57;100.00;101953.53;5077076;28;20028;-72
2024/01/29 00:43:01;;;;;;;18.10;3.63;;;;;;;2.45;100.00;101925.28;5077079;28;20028;-72
2024/01/29 00:45:27;;;;;;;14.77;3.22;;;;;;;2.63;100.00;101933.59;5059507;28;20110;-72
2024/01/29 00:47:52;;;;;;;23.27;3.65;;;;;;;2.68;100.00;101933.25;5077597;28;20029;-70
2024/01/29 00:50:17;;;;;;;25.30;4.07;;;;;;;2.68;100.00;101928.78;5078577;28;20549;-71
2024/01/29 00:52:43;;;;;;;19.15;3.67;;;;;;;2.70;100.00;101921.53;5079502;28;20033;-71
2024/01/29 00:55:08;;;;;;;20.30;3.30;;;;;;;2.71;100.00;101915.25;5077983;28;20506;-71
2024/01/29 00:57:34;;;;;;;18.27;3.78;;;;;;;2.71;100.00;101915.25;5061553;28;20063;-72
2024/01/29 00:59:59;;;;;;;20.52;3.22;;;;;;;2.72;100.00;101918.75;5059715;28;20032;-72
2024/01/29 01:02:25;;;;;;;20.65;3.70;;;;;;;2.73;100.00;101913.31;5078659;28;20058;-71
2024/01/29 01:04:51;;;;;;;22.67;3.97;;;;;;;2.69;100.00;101913.69;5059076;28;20032;-71
2024/01/29 01:07:16;;;;;;;22.92;4.03;;;;;;;2.69;100.00;101911.03;5077470;28;20037;-71
2024/01/29 01:09:42;;;;;;;12.82;3.35;;;;;;;2.70;100.00;101910.91;5076761;28;20032;-71
2024/01/29 01:12:07;;;;;;;19.75;3.70;;;;;;;2.71;100.00;101920.56;5075786;28;20029;-71
2024/01/29 01:14:33;;;;;;;22.75;4.40;;;;;;;2.61;100.00;101900.97;5077640;28;20020;-71
2024/01/29 01:16:59;;;;;;;20.70;3.97;;;;;;;2.69;100.00;101911.88;5076872;28;20528;-71
2024/01/29 01:19:24;;;;;;;20.15;3.40;;;;;;;2.69;100.00;101909.22;5060103;28;20028;-71
2024/01/29 01:21:49;;;;;;;22.48;3.35;;;;;;;2.67;100.00;101913.78;5059431;28;20035;-71
2024/01/29 01:24:15;;;;;;;20.13;4.00;;;;;;;2.66;100.00;101909.47;5077499;28;20458;-72
2024/01/29 01:26:40;;;;;;;20.65;3.53;;;;;;;2.52;100.00;101888.44;5077115;28;20040;-71
2024/01/29 01:29:06;;;;;;;21.40;3.28;;;;;;;2.65;100.00;101920.19;5076784;28;20036;-72
2024/01/29 01:31:31;;;;;;;18.00;3.35;;;;;;;2.63;100.00;101903.53;5076285;28;20502;-72
2024/01/29 01:33:57;;;;;;;23.55;4.15;;;;;;;2.62;100.00;101907.16;5075860;28;20032;-72
2024/01/29 01:36:22;;;;;;;17.88;4.00;;;;;;;2.63;100.00;101908.84;5060382;28;20029;-72
2024/01/29 01:38:48;;;;;;;19.02;3.45;;;;;;;2.60;100.00;101901.97;5059500;28;20495;-72
2024/01/29 01:41:13;;;;;;;24.25;4.07;;;;;;;2.57;100.00;101908.34;5075901;28;20033;-72
2024/01/29 01:43:38;;;;;;;18.05;3.65;;;;;;;2.56;100.00;101911.97;5060196;28;20043;-72
2024/01/29 01:46:04;;;;;;;30.83;4.43;;;;;;;2.56;100.00;101933.25;5075143;28;20081;-72
2024/01/29 01:48:33;;;;;;;18.42;3.47;;;;;;;2.49;100.00;101916.09;5077945;28;20017;-72
2024/01/29 01:51:00;;;;;;;24.30;3.60;;;;;;;2.39;100.00;101893.88;5077196;28;20025;-71
2024/01/29 01:53:29;;;;;;;20.10;4.13;;;;;;;2.58;100.00;101918.03;5077480;28;20067;-72
2024/01/29 01:55:54;;;;;;;23.95;4.47;;;;;;;2.39;100.00;101885.06;5076084;28;20515;-72
2024/01/29 01:58:22;;;;;;;22.38;4.18;;;;;;;2.43;100.00;101892.66;5077044;28;20419;-71
2024/01/29 02:00:50;;;;;;;20.95;3.60;;;;;;;2.50;100.00;101907.16;5073884;28;20033;-72
2024/01/29 02:03:15;;;;;;;14.68;3.85;;;;;;;2.55;100.00;101909.44;5076816;28;20069;-72
2024/01/29 02:05:41;;;;;;;17.98;3.15;;;;;;;2.54;100.00;101908.59;5061175;28;20505;-72
2024/01/29 02:08:07;;;;;;;22.10;3.83;;;;;;;2.55;100.00;101906.78;5074709;28;20055;-72
2024/01/29 02:10:33;;;;;;;21.70;4.03;;;;;;;2.33;100.00;101879.25;5058220;28;20028;-72
2024/01/29 02:12:58;;;;;;;24.23;4.13;;;;;;;2.50;100.00;101904.50;5076289;28;20592;-72
2024/01/29 02:15:24;;;;;;;21.17;4.30;;;;;;;2.43;100.00;101870.56;5058159;28;20487;-72
2024/01/29 02:17:49;;;;;;;18.08;3.60;;;;;;;2.32;100.00;101872.25;5075832;28;20040;-72
2024/01/29 02:20:16;;;;;;;20.10;4.20;;;;;;;2.52;100.00;101912.34;5059096;28;20039;-72
2024/01/29 02:22:45;;;;;;;19.70;4.00;;;;;;;2.50;100.00;101906.31;5076032;28;20032;-72
2024/01/29 02:25:12;;;;;;;20.63;3.92;;;;;;;2.33;100.00;101881.91;5076447;28;20058;-72
2024/01/29 02:27:37;;;;;;;23.73;4.07;;;;;;;2.50;100.00;101925.75;5075864;28;20020;-72
2024/01/29 02:30:04;;;;;;;20.40;4.35;;;;;;;2.37;100.00;101877.19;5076456;28;20025;-72
2024/01/29 02:32:31;;;;;;;16.35;3.47;;;;;;;2.53;100.00;101906.06;5058085;28;20031;-72
2024/01/29 02:34:56;;;;;;;21.20;4.03;;;;;;;2.53;100.00;101908.72;5075435;28;20033;-72
2024/01/29 02:37:22;;;;;;;21.33;3.92;;;;;;;2.42;100.00;101879.47;5076493;28;20078;-71
2024/01/29 02:39:50;;;;;;;19.88;3.90;;;;;;;2.53;100.00;101890.13;5058008;28;20391;-72
2024/01/29 02:42:17;;;;;;;19.50;3.88;;;;;;;2.46;100.00;101889.75;5057762;28;20025;-71
2024/01/29 02:44:42;;;;;;;22.90;3.78;;;;;;;2.56;100.00;101897.84;5056962;28;20537;-71
2024/01/29 02:47:08;;;;;;;20.63;3.55;;;;;;;2.56;100.00;101901.34;5075892;28;20029;-71
2024/01/29 02:49:34;;;;;;;23.27;3.95;;;;;;;2.56;100.00;101900.50;5058128;28;20020;-72
2024/01/29 02:52:02;;;;;;;26.88;4.22;;;;;;;2.55;100.00;101914.75;5077016;28;20032;-72
2024/01/29 02:54:27;;;;;;;22.10;3.92;;;;;;;2.54;100.00;101921.88;5058083;28;20032;-72
2024/01/29 02:56:52;;;;;;;19.42;3.70;;;;;;;2.54;100.00;101915.72;5076952;28;20058;-72
2024/01/29 02:59:19;;;;;;;24.23;3.97;;;;;;;2.57;100.00;101920.78;5058269;28;20029;-72
2024/01/29 03:01:44;;;;;;;18.95;3.40;;;;;;;2.56;100.00;101901.34;5057976;28;20483;-72
2024/01/29 03:04:10;;;;;;;20.05;3.78;;;;;;;2.58;100.00;101882.63;5073279;28;20024;-71
2024/01/29 03:06:35;;;;;;;17.95;3.50;;;;;;;2.67;100.00;101889.03;5057118;28;20023;-70
2024/01/29 03:09:02;;;;;;;18.73;3.60;;;;;;;2.68;100.00;101891.59;5057997;28;20031;-72
2024/01/29 03:11:27;;;;;;;17.85;3.50;;;;;;;2.72;100.00;101892.19;5076505;28;20040;-72
2024/01/29 03:13:52;;;;;;;18.23;3.60;;;;;;;2.78;100.00;101884.56;5075248;28;20086;-72
2024/01/29 03:16:18;;;;;;;16.50;3.50;;;;;;;2.81;100.00;101880.81;5074396;28;20056;-72
2024/01/29 03:18:43;;;;;;;16.60;3.13;;;;;;;2.85;100.00;101884.06;5074769;28;20483;-72
2024/01/29 03:21:09;;;;;;;16.75;3.90;;;;;;;2.82;100.00;101872.72;5074359;28;20028;-72
2024/01/29 03:23:34;;;;;;;25.02;4.10;;;;;;;2.85;100.00;101876.09;5074389;28;20021;-71
2024/01/29 03:26:00;;;;;;;19.67;4.28;;;;;;;2.85;100.00;101881.41;5057941;28;20044;-72
2024/01/29 03:28:26;;;;;;;23.00;3.85;;;;;;;2.83;100.00;101893.00;5074696;28;20502;-72
2024/01/29 03:30:51;;;;;;;17.10;3.90;;;;;;;2.82;100.00;101872.72;5074624;28;20544;-72
2024/01/29 03:33:17;;;;;;;22.55;3.97;;;;;;;2.84;100.00;101877.91;5056723;28;20032;-72
2024/01/29 03:35:43;;;;;;;25.17;3.75;;;;;;;2.85;100.00;101876.97;5074176;28;20033;-71
2024/01/29 03:38:09;;;;;;;18.75;3.83;;;;;;;2.87;100.00;101879.47;5074129;28;20055;-72
2024/01/29 03:40:34;;;;;;;19.73;3.78;;;;;;;2.83;100.00;101874.41;5073642;28;20036;-71
2024/01/29 03:43:00;;;;;;;18.92;3.80;;;;;;;2.83;100.00;101870.91;5073570;28;20035;-72
2024/01/29 03:45:26;;;;;;;20.63;4.43;;;;;;;2.79;100.00;101866.81;5077338;28;20024;-71
2024/01/29 03:47:51;;;;;;;22.05;3.85;;;;;;;2.74;100.00;101855.69;5079368;28;20677;-72
2024/01/29 03:50:16;;;;;;;22.20;4.07;;;;;;;2.44;100.00;101811.16;5061540;28;20115;-72
2024/01/29 03:52:42;;;;;;;27.25;4.50;;;;;;;2.72;100.00;101862.97;5080137;28;20054;-72
2024/01/29 03:55:07;;;;;;;21.20;3.90;;;;;;;2.71;100.00;101861.25;5077842;28;20032;-72
2024/01/29 03:57:33;;;;;;;26.38;4.10;;;;;;;2.70;100.00;101865.72;5061179;28;20463;-71
2024/01/29 03:59:58;;;;;;;21.70;4.07;;;;;;;2.68;100.00;101837.56;5078604;28;20551;-72
2024/01/29 04:02:23;;;;;;;18.70;3.90;;;;;;;2.68;100.00;101811.00;5061638;28;20028;-72
2024/01/29 04:04:49;;;;;;;26.80;4.75;;;;;;;2.65;100.00;101822.75;5078007;28;20065;-72
2024/01/29 04:07:16;;;;;;;26.30;4.63;;;;;;;2.61;100.00;101821.28;5078249;28;20032;-72
2024/01/29 04:09:41;;;;;;;29.95;4.75;;;;;;;2.57;100.00;101818.00;5078924;28;20028;-72
2024/01/29 04:12:07;;;;;;;27.67;4.80;;;;;;;2.56;100.00;101807.53;5059084;28;20032;-71
2024/01/29 04:14:32;;;;;;;28.05;4.45;;;;;;;2.55;100.00;101801.38;5074984;28;20032;-72
2024/01/29 04:16:57;;;;;;;29.58;5.05;;;;;;;2.55;100.00;101785.44;5079399;28;20036;-71
2024/01/29 04:19:23;;;;;;;22.42;3.92;;;;;;;2.55;100.00;101785.44;5079113;28;20036;-72
2024/01/29 04:21:48;;;;;;;26.17;4.38;;;;;;;2.56;100.00;101820.81;5078185;28;20036;-72
2024/01/29 04:24:15;;;;;;;19.88;4.60;;;;;;;2.55;100.00;101814.66;5077916;28;20553;-72
2024/01/29 04:26:41;;;;;;;21.55;4.32;;;;;;;2.55;100.00;101821.75;5076782;28;20032;-71
2024/01/29 04:29:08;;;;;;;23.52;4.28;;;;;;;2.58;100.00;101821.50;5077063;28;20044;-71
2024/01/29 04:31:35;;;;;;;20.50;4.30;;;;;;;2.45;100.00;101794.22;5078080;28;20724;-72
2024/01/29 04:34:01;;;;;;;22.50;4.93;;;;;;;2.61;100.00;101810.63;5078501;28;20028;-71
2024/01/29 04:36:26;;;;;;;26.35;4.47;;;;;;;2.62;100.00;101796.41;5078903;28;20045;-71
2024/01/29 04:38:52;;;;;;;22.83;4.00;;;;;;;2.59;100.00;101799.31;5077349;28;20036;-72
2024/01/29 04:41:21;;;;;;;26.13;4.50;;;;;;;2.65;100.00;101790.84;5079142;28;20154;-73
2024/01/29 04:43:47;;;;;;;28.92;5.15;;;;;;;2.64;100.00;101799.78;5075834;28;20031;-72
2024/01/29 04:46:13;;;;;;;18.65;3.63;;;;;;;2.67;100.00;101802.19;5076142;28;20550;-72
2024/01/29 04:48:40;;;;;;;20.73;4.22;;;;;;;2.65;100.00;101812.09;5083722;28;20040;-72
2024/01/29 04:51:08;;;;;;;26.65;4.45;;;;;;;2.52;100.00;101788.31;5078431;28;20028;-72
2024/01/29 04:53:34;;;;;;;23.17;4.50;;;;;;;2.68;100.00;101811.00;5077678;28;20029;-72
2024/01/29 04:56:03;;;;;;;23.05;4.40;;;;;;;2.68;100.00;101800.38;5075895;28;20120;-71
2024/01/29 04:58:31;;;;;;;28.63;4.50;;;;;;;2.69;100.00;101802.91;5077301;28;20033;-72
2024/01/29 05:01:00;;;;;;;21.35;4.22;;;;;;;2.70;100.00;101798.44;5077953;28;20035;-72
2024/01/29 05:03:27;;;;;;;20.38;3.75;;;;;;;2.57;100.00;101762.22;5060678;28;20074;-71
2024/01/29 05:05:53;;;;;;;23.10;4.00;;;;;;;2.75;100.00;101793.63;5078397;28;20052;-72
2024/01/29 05:08:19;;;;;;;22.23;3.95;;;;;;;2.78;100.00;101801.31;5076958;28;20025;-72
2024/01/29 05:10:45;;;;;;;21.88;4.50;;;;;;;2.77;100.00;101800.47;5077076;28;20498;-72
2024/01/29 05:13:11;;;;;;;19.23;4.35;;;;;;;2.78;100.00;101801.31;5075760;28;20036;-72
2024/01/29 05:15:36;;;;;;;18.23;3.85;;;;;;;2.81;100.00;101807.25;5057896;28;20028;-71
2024/01/29 05:18:02;;;;;;;24.58;3.67;;;;;;;2.70;100.00;101793.13;5041875;28;20033;-72
2024/01/29 05:20:29;;;;;;;18.92;4.18;;;;;;;2.83;100.00;101821.25;5076843;28;20043;-71
2024/01/29 05:22:55;;;;;;;22.65;4.30;;;;;;;2.86;100.00;101814.00;5057914;28;20040;-72
2024/01/29 05:25:20;;;;;;;17.70;3.78;;;;;;;2.87;100.00;101815.69;5075898;28;20040;-71
2024/01/29 05:27:45;;;;;;;27.73;4.53;;;;;;;2.88;100.00;101806.72;5093514;28;20154;-71
2024/01/29 05:30:11;;;;;;;17.15;3.90;;;;;;;2.89;100.00;101808.44;5094282;28;20032;-72
2024/01/29 05:32:38;;;;;;;23.73;4.63;;;;;;;2.86;100.00;101806.88;5058100;28;20043;-71
2024/01/29 05:35:04;;;;;;;21.92;4.40;;;;;;;2.78;100.00;101799.53;5076526;28;20099;-73
2024/01/29 05:37:32;;;;;;;21.58;4.57;;;;;;;2.93;100.00;101817.84;5078494;28;20053;-72
2024/01/29 05:39:57;;;;;;;22.48;4.25;;;;;;;2.93;100.00;101820.50;5076531;28;20028;-72
2024/01/29 05:42:23;;;;;;;19.88;4.05;;;;;;;2.97;100.00;101816.63;5059502;28;20478;-72
2024/01/29 05:44:48;;;;;;;23.75;4.30;;;;;;;2.98;100.00;101823.63;5075138;28;20058;-73
2024/01/29 05:47:13;;;;;;;21.33;4.65;;;;;;;2.86;100.00;101787.41;5076111;28;20048;-71
2024/01/29 05:49:39;;;;;;;20.35;4.38;;;;;;;3.05;100.00;101812.38;5076487;28;20032;-72
2024/01/29 05:52:05;;;;;;;23.33;4.32;;;;;;;3.09;100.00;101831.59;5075435;28;20028;-71
2024/01/29 05:54:30;;;;;;;23.15;4.22;;;;;;;2.99;100.00;101809.38;5075796;28;20036;-71
2024/01/29 05:56:57;;;;;;;26.52;4.72;;;;;;;3.13;100.00;101837.50;5092703;28;20028;-71
2024/01/29 05:59:22;;;;;;;23.77;4.30;;;;;;;3.16;100.00;101837.25;5073560;28;20028;-71
2024/01/29 06:01:48;;;;;;;27.30;4.45;;;;;;;3.11;100.00;101815.50;5057622;28;20032;-70
2024/01/29 06:04:13;;;;;;;19.00;4.18;;;;;;;3.20;100.00;101831.53;5092689;28;20479;-71
2024/01/29 06:06:39;;;;;;;27.80;4.38;;;;;;;3.14;100.00;101829.38;5076666;28;20012;-71
2024/01/29 06:09:09;;;;;;;18.70;4.30;;;;;;;3.26;100.00;101847.00;5075115;28;20028;-71
2024/01/29 06:11:35;;;;;;;19.42;3.80;;;;;;;3.27;100.00;101838.03;5075413;28;20487;-71
2024/01/29 06:14:01;;;;;;;26.58;4.07;;;;;;;3.30;100.00;101837.78;5075909;28;20093;-72
2024/01/29 06:16:26;;;;;;;20.70;5.05;;;;;;;3.24;100.00;101826.81;5075620;28;20111;-71
2024/01/29 06:18:52;;;;;;;21.55;4.25;;;;;;;3.25;100.00;101832.03;5074821;28;20505;-72
2024/01/29 06:21:17;;;;;;;24.20;5.00;;;;;;;3.28;100.00;101822.94;5056144;28;20197;-71
2024/01/29 06:23:44;;;;;;;27.30;4.47;;;;;;;3.32;100.00;101842.16;5080476;28;20549;-70
2024/01/29 06:26:09;;;;;;;21.23;4.60;;;;;;;3.40;100.00;101875.13;5076372;28;20051;-71
2024/01/29 06:28:35;;;;;;;21.70;4.60;;;;;;;3.44;100.00;101870.41;5057173;28;20041;-71
2024/01/29 06:31:00;;;;;;;16.10;4.10;;;;;;;3.42;100.00;101873.19;5074991;28;20117;-71
2024/01/29 06:33:26;;;;;;;21.13;4.50;;;;;;;3.50;100.00;101864.56;5075375;28;20478;-72
2024/01/29 06:35:51;;;;;;;26.70;4.60;;;;;;;3.52;100.00;101867.97;5074685;28;20028;-72
2024/01/29 06:38:17;;;;;;;31.33;4.15;;;;;;;3.55;100.00;101877.50;5075331;28;20052;-71
2024/01/29 06:40:44;;;;;;;21.50;4.00;;;;;;;3.57;100.00;101894.19;5074211;28;20039;-72
2024/01/29 06:43:10;;;;;;;24.52;4.68;;;;;;;3.57;100.00;101895.03;5058599;28;20029;-71
2024/01/29 06:45:35;;;;;;;23.08;4.20;;;;;;;3.59;100.00;101903.75;5074343;28;20089;-71
2024/01/29 06:48:01;;;;;;;17.45;4.53;;;;;;;3.59;100.00;101909.06;5074921;28;20025;-71
2024/01/29 06:50:27;;;;;;;26.63;6.10;;;;;;;3.63;100.00;101902.50;5092072;28;20662;-71
2024/01/29 06:52:52;;;;;;;19.48;4.32;;;;;;;3.65;100.00;101908.56;5092113;28;20052;-71
2024/01/29 06:55:20;;;;;;;20.05;4.03;;;;;;;3.52;100.00;101876.78;5076594;28;20048;-71
2024/01/29 06:57:48;;;;;;;20.80;4.18;;;;;;;3.71;100.00;101899.22;5091520;28;20031;-71
2024/01/29 07:00:14;;;;;;;20.75;3.95;;;;;;;3.73;100.00;101906.09;5075161;28;20107;-71
2024/01/29 07:02:39;;;;;;;20.58;4.45;;;;;;;3.74;100.00;101901.59;5073333;28;20052;-71
2024/01/29 07:05:05;;;;;;;21.10;4.40;;;;;;;3.64;100.00;101892.69;5092234;28;20080;-71
2024/01/29 07:07:30;;;;;;;22.50;4.65;;;;;;;3.78;100.00;101910.22;5075181;28;20020;-72
2024/01/29 07:09:56;;;;;;;23.73;3.88;;;;;;;3.68;100.00;101889.66;5074007;28;20020;-71
2024/01/29 07:12:22;;;;;;;22.95;4.22;;;;;;;3.75;100.00;101908.63;5074477;28;20032;-71
2024/01/29 07:14:49;;;;;;;12.40;3.83;;;;;;;3.82;100.00;101914.31;5074110;28;20515;-71
2024/01/29 07:17:14;;;;;;;18.95;4.40;;;;;;;3.83;100.00;101916.81;5076341;28;20031;-71
2024/01/29 07:19:39;;;;;;;22.75;4.10;;;;;;;3.85;100.00;101930.03;5074934;28;20046;-71
2024/01/29 07:22:08;;;;;;;25.60;4.50;;;;;;;3.85;100.00;101924.69;5091289;28;20029;-72
2024/01/29 07:24:36;;;;;;;23.73;4.80;;;;;;;3.87;100.00;101922.72;5075199;28;20083;-71
2024/01/29 07:27:04;;;;;;;17.98;4.20;;;;;;;3.78;100.00;101920.84;5058247;28;20032;-72
2024/01/29 07:29:32;;;;;;;19.67;4.13;;;;;;;3.83;100.00;101931.94;5057454;28;20040;-71
2024/01/29 07:31:58;;;;;;;18.42;4.68;;;;;;;3.72;100.00;101907.06;5057524;28;20097;-71
2024/01/29 07:34:23;;;;;;;24.60;4.70;;;;;;;3.91;100.00;101934.84;5074649;28;20095;-71
2024/01/29 07:36:48;;;;;;;20.30;4.10;;;;;;;3.74;100.00;101926.44;5074413;28;20410;-71
2024/01/29 07:39:14;;;;;;;20.88;4.22;;;;;;;3.96;100.00;101964.56;5076817;28;20046;-71
2024/01/29 07:41:39;;;;;;;22.63;4.63;;;;;;;3.95;100.00;101962.91;5059008;28;20048;-71
2024/01/29 07:44:06;;;;;;;20.92;4.95;;;;;;;3.95;100.00;101966.41;5074904;28;20027;-72
2024/01/29 07:46:31;;;;;;;21.75;4.43;;;;;;;3.98;100.00;101970.63;5077047;28;20047;-72
2024/01/29 07:49:01;;;;;;;20.10;4.18;;;;;;;3.97;100.00;101977.78;5078762;28;20384;-71
2024/01/29 07:51:27;;;;;;;22.13;4.95;;;;;;;3.83;100.00;101958.56;5073765;28;20036;-71
2024/01/29 07:53:52;;;;;;;22.27;4.57;;;;;;;4.01;100.00;101978.38;5075127;28;20035;-71
2024/01/29 07:56:18;;;;;;;18.10;4.10;;;;;;;3.81;100.00;101944.53;5074473;28;20028;-72
2024/01/29 07:58:44;;;;;;;23.30;3.97;;;;;;;3.99;100.00;101972.31;5074782;28;20024;-71
2024/01/29 08:01:09;;;;;;;26.08;4.20;;;;;;;4.03;100.00;101976.41;5090365;28;20025;-71
2024/01/29 08:03:34;;;;;;;18.20;4.07;;;;;;;4.03;100.00;101995.06;5056900;28;20132;-71
2024/01/29 08:06:00;;;;;;;23.27;4.22;;;;;;;3.98;100.00;102000.75;5091077;28;20079;-71
2024/01/29 08:08:26;;;;;;;20.50;4.30;;;;;;;4.03;100.00;102003.03;5073035;28;20028;-71
2024/01/29 08:10:51;;;;;;;20.70;5.03;;;;;;;4.05;100.00;102014.41;5074687;28;20036;-71
2024/01/29 08:13:16;;;;;;;24.33;4.50;;;;;;;4.05;100.00;102022.41;5091177;28;20062;-71
2024/01/29 08:15:42;;;;;;;15.98;4.35;;;;;;;4.06;100.00;102018.75;5073756;28;20368;-71
2024/01/29 08:18:09;;;;;;;28.30;5.22;;;;;;;4.06;100.00;102020.59;5074933;28;20032;-71
2024/01/29 08:20:34;;;;;;;20.88;4.72;;;;;;;4.09;100.00;102017.69;5074366;28;20025;-72
2024/01/29 08:23:00;;;;;;;22.10;5.20;;;;;;;4.11;100.00;102016.59;5089984;28;20081;-71
2024/01/29 08:25:26;;;;;;;24.38;4.88;;;;;;;3.98;100.00;102008.75;5074189;28;20028;-71
2024/01/29 08:27:51;;;;;;;19.63;4.50;;;;;;;4.14;100.00;102029.66;5074342;28;20060;-71
2024/01/29 08:30:17;;;;;;;27.27;4.35;;;;;;;4.15;100.00;102038.47;5076747;28;20547;-71
2024/01/29 08:32:43;;;;;;;21.27;4.88;;;;;;;4.01;100.00;102013.00;5077817;28;20042;-72
2024/01/29 08:35:10;;;;;;;19.63;4.13;;;;;;;4.17;100.00;102041.84;5077543;28;20021;-71
2024/01/29 08:37:35;;;;;;;24.95;4.78;;;;;;;4.02;100.00;102011.16;5095044;28;20056;-71
2024/01/29 08:40:01;;;;;;;21.55;4.70;;;;;;;4.16;100.00;102019.69;5064035;28;20174;-71
2024/01/29 08:42:26;;;;;;;19.77;4.70;;;;;;;4.18;100.00;102011.59;5093017;28;20080;-71
2024/01/29 08:44:56;;;;;;;22.02;4.63;;;;;;;4.19;100.00;102014.13;5063190;28;20433;-71
2024/01/29 08:47:22;;;;;;;25.48;4.90;;;;;;;4.20;100.00;102021.13;5060157;28;20033;-72
2024/01/29 08:49:47;;;;;;;25.30;4.55;;;;;;;4.20;100.00;102018.47;5077984;28;20078;-71
2024/01/29 08:52:13;;;;;;;23.63;4.88;;;;;;;4.18;100.00;102028.41;5078698;28;20616;-71
2024/01/29 08:54:38;;;;;;;20.42;4.35;;;;;;;4.18;100.00;102023.09;5060974;28;20372;-71
2024/01/29 08:57:04;;;;;;;18.98;4.20;;;;;;;4.14;100.00;102011.00;5077127;28;20094;-71
2024/01/29 08:59:31;;;;;;;23.00;4.70;;;;;;;4.14;100.00;102023.44;5076538;28;20036;-72
2024/01/29 09:01:57;;;;;;;23.45;4.40;;;;;;;4.12;100.00;102017.44;5078058;28;20024;-71
2024/01/29 09:04:23;;;;;;;24.98;4.25;;;;;;;4.14;100.00;102008.34;5077835;28;20013;-71
2024/01/29 09:06:49;;;;;;;21.65;5.03;;;;;;;4.16;100.00;102008.19;5077192;28;20031;-72
2024/01/29 09:09:14;;;;;;;27.52;5.57;;;;;;;4.16;100.00;101998.38;5075210;28;20037;-71
2024/01/29 09:11:40;;;;;;;27.05;5.25;;;;;;;4.18;100.00;101990.28;5077758;28;20052;-71
2024/01/29 09:14:05;;;;;;;24.85;4.95;;;;;;;4.19;100.00;101995.47;5078825;28;20413;-71
2024/01/29 09:16:32;;;;;;;24.50;5.50;;;;;;;4.19;100.00;102013.28;5077284;28;20036;-72
2024/01/29 09:18:58;;;;;;;26.63;4.93;;;;;;;4.22;100.00;102029.84;5093887;28;20032;-71
2024/01/29 09:21:25;;;;;;;23.75;4.88;;;;;;;4.09;100.00;102017.69;5074645;28;20035;-72
2024/01/29 09:23:50;;;;;;;20.60;4.70;;;;;;;4.10;100.00;102019.34;5075963;28;20025;-72
2024/01/29 09:26:16;;;;;;;24.38;4.47;;;;;;;4.27;100.00;102048.09;5060381;28;20039;-72
2024/01/29 09:28:43;;;;;;;20.63;4.93;;;;;;;4.17;100.00;102025.88;5077884;28;20033;-71
2024/01/29 09:31:10;;;;;;;17.73;4.50;;;;;;;4.33;100.00;102052.91;5078187;28;20460;-72
2024/01/29 09:33:36;;;;;;;15.30;4.57;;;;;;;4.38;100.00;102057.88;5092678;28;20390;-72
2024/01/29 09:36:02;;;;;;;18.85;4.55;;;;;;;4.33;100.00;102046.75;5108390;28;20013;-72
2024/01/29 09:38:27;;;;;;;21.23;5.15;;;;;;;4.42;100.00;102051.31;5074135;28;20060;-71
2024/01/29 09:40:54;;;;;;;21.10;5.53;;;;;;;4.44;100.00;102055.56;5083287;28;20020;-72
2024/01/29 09:43:21;;;;;;;16.52;4.07;;;;;;;4.49;100.00;102052.50;5075969;28;20028;-70
2024/01/29 09:45:50;;;;;;;17.63;4.60;;;;;;;4.53;100.00;102043.25;5076013;28;20112;-71
2024/01/29 09:48:16;;;;;;;18.40;4.53;;;;;;;4.55;100.00;102040.47;5075276;28;20037;-71
2024/01/29 09:50:43;;;;;;;19.52;4.97;;;;;;;4.52;100.00;102046.91;5059320;28;20486;-72
2024/01/29 09:53:11;;;;;;;16.23;4.68;;;;;;;4.22;100.00;101991.72;5092918;28;20450;-71
2024/01/29 09:55:37;;;;;;;20.02;5.00;;;;;;;4.29;100.00;101997.38;5075019;28;20110;-72
2024/01/29 09:58:03;;;;;;;19.85;5.43;;;;;;;4.50;100.00;102035.53;5075978;28;20029;-71
2024/01/29 10:00:29;;;;;;;23.77;4.65;;;;;;;4.52;100.00;102038.06;5058694;28;20048;-72
2024/01/29 10:02:59;;;;;;;20.02;5.05;;;;;;;4.43;100.00;102021.88;5075999;28;20036;-72
2024/01/29 10:05:29;;;;;;;20.20;5.40;;;;;;;4.57;100.00;102031.38;5076144;28;20115;-71
2024/01/29 10:07:56;;;;;;;21.17;4.45;;;;;;;4.53;100.00;102029.94;5077151;28;20028;-71
2024/01/29 10:10:24;;;;;;;22.20;6.18;;;;;;;4.62;100.00;102050.50;5074912;28;20040;-72
2024/01/29 10:12:50;;;;;;;21.98;5.18;;;;;;;4.64;100.00;102059.22;5078981;28;20028;-70
2024/01/29 10:15:15;;;;;;;23.92;5.18;;;;;;;4.69;100.00;102056.97;5059123;28;20040;-71
2024/01/29 10:17:41;;;;;;;20.40;4.78;;;;;;;4.75;100.00;102063.63;5076264;28;20092;-71
2024/01/29 10:20:19;;;;;;;21.70;5.50;;;;;;;4.62;100.00;102037.16;5060614;28;20115;-71
2024/01/29 10:22:44;;;;;;;18.52;4.80;;;;;;;4.70;100.00;102053.38;5076172;28;20056;-71
2024/01/29 10:25:13;;;;;;;27.17;5.32;;;;;;;4.56;100.00;102026.16;5060513;28;20086;-71
2024/01/29 10:27:39;;;;;;;22.23;4.90;;;;;;;4.80;100.00;102069.44;5075799;28;20063;-71
2024/01/29 10:30:06;;;;;;;22.80;5.13;;;;;;;4.80;100.00;102071.22;5067529;28;20075;-71
2024/01/29 10:32:31;;;;;;;18.85;4.90;;;;;;;4.82;100.00;102082.63;5092843;28;20025;-71
2024/01/29 10:34:57;;;;;;;16.02;4.28;;;;;;;4.80;100.00;102088.09;5082587;28;20025;-71
2024/01/29 10:37:26;;;;;;;19.80;4.38;;;;;;;4.76;100.00;102094.63;5078173;28;20063;-71
2024/01/29 10:39:54;;;;;;;19.25;5.03;;;;;;;4.69;100.00;102091.66;5074952;28;20476;-72
2024/01/29 10:42:21;;;;;;;17.85;4.65;;;;;;;4.69;100.00;102096.97;5075171;28;20487;-72
2024/01/29 10:44:46;;;;;;;21.42;4.60;;;;;;;4.68;100.00;102100.63;5074169;28;20017;-71
2024/01/29 10:47:24;;;;;;;22.00;4.43;;;;;;;4.47;100.00;102078.44;5074158;28;20040;-71
2024/01/29 10:49:52;;;;;;;27.17;5.25;;;;;;;4.65;100.00;102110.72;5075553;28;20028;-71
2024/01/29 10:52:19;;;;;;;22.50;5.03;;;;;;;4.64;100.00;102109.03;5075394;28;20036;-72
2024/01/29 10:54:46;;;;;;;23.20;4.93;;;;;;;4.64;100.00;102109.88;5074584;28;20036;-71
2024/01/29 10:57:13;;;;;;;17.77;4.57;;;;;;;4.59;100.00;102104.06;5091197;28;20111;-71
2024/01/29 10:59:41;;;;;;;19.83;5.47;;;;;;;4.35;100.00;102061.66;5074429;28;20024;-71
2024/01/29 11:02:11;;;;;;;25.52;5.20;;;;;;;4.59;100.00;102104.06;5075785;28;20031;-71
2024/01/29 11:04:37;;;;;;;18.45;4.70;;;;;;;4.57;100.00;102100.69;5075354;28;20028;-71
2024/01/29 11:07:12;;;;;;;22.52;5.10;;;;;;;4.52;100.00;102094.88;5075570;28;20047;-71
2024/01/29 11:09:47;;;;;;;30.02;5.60;;;;;;;4.57;100.00;102108.69;5075519;28;20019;-72
2024/01/29 11:12:14;;;;;;;19.05;4.90;;;;;;;4.57;100.00;102097.16;5076048;28;20051;-72